createdAt,value
2022-12-29T00:00:01.351Z,9.60
2022-12-29T00:02:33.832Z,8.70
2022-12-29T00:05:06.861Z,9.10
2022-12-29T00:07:38.641Z,9.80
2022-12-29T00:10:11.373Z,9.70
2022-12-29T00:13:00.649Z,9.90
2022-12-29T00:15:41.678Z,11.00
2022-12-29T00:18:13.520Z,10.20
2022-12-29T00:21:03.471Z,10.00
2022-12-29T00:23:52.619Z,10.00
2022-12-29T00:26:41.871Z,10.00
2022-12-29T00:29:31.327Z,11.30
2022-12-29T00:32:20.375Z,11.30
2022-12-29T00:35:10.541Z,10.20
2022-12-29T00:38:03.624Z,9.90
2022-12-29T00:40:53.541Z,10.40
2022-12-29T00:43:42.758Z,11.60
2022-12-29T00:46:19.735Z,11.00
2022-12-29T00:49:09.673Z,10.70
2022-12-29T00:51:41.289Z,11.40
2022-12-29T00:54:13.176Z,12.00
2022-12-29T00:56:47.501Z,9.50
2022-12-29T00:59:20.169Z,13.90
2022-12-29T01:01:52.515Z,13.60
2022-12-29T01:04:25.867Z,10.30
2022-12-29T01:06:57.501Z,12.40
2022-12-29T01:09:47.165Z,11.10
2022-12-29T01:12:38.876Z,12.30
2022-12-29T01:15:13.278Z,12.40
2022-12-29T01:17:44.985Z,12.20
2022-12-29T01:20:16.951Z,12.80
2022-12-29T01:22:48.754Z,15.10
2022-12-29T01:25:20.702Z,12.60
2022-12-29T01:27:52.321Z,12.90
2022-12-29T01:30:23.947Z,15.50
2022-12-29T01:32:55.620Z,12.90
2022-12-29T01:35:27.311Z,12.50
2022-12-29T01:37:59.941Z,13.30
2022-12-29T01:40:31.779Z,12.80
2022-12-29T01:43:04.419Z,12.00
2022-12-29T01:45:36.111Z,12.10
2022-12-29T01:48:12.322Z,13.50
2022-12-29T01:50:48.395Z,11.60
2022-12-29T01:53:23.293Z,11.70
2022-12-29T01:55:59.949Z,13.90
2022-12-29T01:58:34.904Z,14.50
2022-12-29T02:01:08.095Z,14.40
2022-12-29T02:03:40.270Z,14.00
2022-12-29T02:06:17.508Z,14.40
2022-12-29T02:08:52.315Z,13.30
2022-12-29T02:11:26.333Z,13.70
2022-12-29T02:13:59.308Z,13.50
2022-12-29T02:16:48.362Z,14.30
2022-12-29T02:19:57.175Z,15.50
2022-12-29T02:22:32.442Z,15.50
2022-12-29T02:25:33.081Z,13.10
2022-12-29T02:28:41.425Z,14.00
2022-12-29T02:31:23.370Z,14.10
2022-12-29T02:34:07.255Z,14.60
2022-12-29T02:36:47.069Z,15.90
2022-12-29T02:39:30.513Z,15.10
2022-12-29T02:42:12.029Z,14.10
2022-12-29T02:44:54.261Z,14.30
2022-12-29T02:47:35.501Z,16.90
2022-12-29T02:50:14.058Z,17.10
2022-12-29T02:52:51.857Z,13.40
2022-12-29T02:55:23.827Z,15.90
2022-12-29T02:58:20.789Z,15.60
2022-12-29T03:01:06.119Z,15.60
2022-12-29T03:03:51.163Z,16.80
2022-12-29T03:06:40.078Z,16.60
2022-12-29T03:09:21.810Z,14.70
2022-12-29T03:12:12.304Z,14.90
2022-12-29T03:15:10.396Z,15.70
2022-12-29T03:17:53.659Z,17.00
2022-12-29T03:20:33.397Z,14.60
2022-12-29T03:23:07.716Z,14.20
2022-12-29T03:25:44.880Z,14.20
2022-12-29T03:28:23.936Z,13.30
2022-12-29T03:30:57.200Z,15.30
2022-12-29T03:33:32.295Z,13.40
2022-12-29T03:36:09.428Z,11.10
2022-12-29T03:38:46.315Z,12.20
2022-12-29T03:41:22.726Z,13.90
2022-12-29T03:43:54.357Z,10.10
2022-12-29T03:46:26.089Z,9.50
2022-12-29T03:48:58.346Z,10.20
2022-12-29T03:51:29.967Z,10.20
2022-12-29T03:54:01.930Z,8.90
2022-12-29T03:56:33.563Z,11.60
2022-12-29T03:59:05.696Z,11.50
2022-12-29T04:01:37.401Z,11.20
2022-12-29T04:04:09.242Z,10.10
2022-12-29T04:06:41.290Z,12.10
2022-12-29T04:09:14.291Z,13.10
2022-12-29T04:11:45.938Z,11.00
2022-12-29T04:14:17.758Z,9.70
2022-12-29T04:16:50.062Z,8.90
2022-12-29T04:19:21.714Z,12.00
2022-12-29T04:21:53.343Z,11.30
2022-12-29T04:24:25.263Z,11.30
2022-12-29T04:26:56.955Z,12.80
2022-12-29T04:29:28.815Z,14.00
2022-12-29T04:32:00.419Z,14.10
2022-12-29T04:34:32.033Z,12.70
2022-12-29T04:37:03.626Z,15.20
2022-12-29T04:39:35.286Z,12.90
2022-12-29T04:42:07.301Z,16.30
2022-12-29T04:44:44.908Z,15.90
2022-12-29T04:47:16.987Z,14.50
2022-12-29T04:49:49.022Z,16.60
2022-12-29T04:52:20.621Z,19.30
2022-12-29T04:54:52.263Z,16.40
2022-12-29T04:57:26.333Z,16.10
2022-12-29T04:59:57.955Z,14.60
2022-12-29T05:02:29.810Z,14.40
2022-12-29T05:05:01.690Z,18.10
2022-12-29T05:07:34.415Z,15.90
2022-12-29T05:10:07.793Z,15.50
2022-12-29T05:12:40.671Z,14.70
2022-12-29T05:15:14.135Z,14.50
2022-12-29T05:17:46.258Z,18.20
2022-12-29T05:20:18.396Z,20.90
2022-12-29T05:22:50.070Z,21.70
2022-12-29T05:25:21.702Z,23.00
2022-12-29T05:27:53.273Z,18.90
2022-12-29T05:30:24.946Z,20.70
2022-12-29T05:32:56.571Z,31.80
2022-12-29T05:35:28.367Z,62.80
2022-12-29T05:38:00.003Z,44.90
2022-12-29T05:40:31.601Z,30.00
2022-12-29T05:43:03.461Z,28.70
2022-12-29T05:45:35.144Z,22.30
2022-12-29T05:48:07.887Z,26.40
2022-12-29T05:50:39.459Z,24.50
2022-12-29T05:53:11.305Z,28.20
2022-12-29T05:55:46.950Z,53.80
2022-12-29T05:58:20.538Z,33.00
2022-12-29T06:00:52.669Z,194.80
2022-12-29T06:03:24.417Z,113.20
2022-12-29T06:05:56.339Z,123.60
2022-12-29T06:08:27.949Z,296.00
2022-12-29T06:10:59.708Z,176.90
2022-12-29T06:13:31.462Z,78.90
2022-12-29T06:16:03.463Z,101.20
2022-12-29T06:18:35.250Z,89.50
2022-12-29T06:21:09.060Z,78.40
2022-12-29T06:23:40.747Z,51.90
2022-12-29T06:26:12.442Z,42.70
2022-12-29T06:28:44.089Z,32.80
2022-12-29T06:31:15.761Z,27.70
2022-12-29T06:33:50.013Z,36.10
2022-12-29T06:36:21.976Z,27.90
2022-12-29T06:38:54.352Z,18.80
2022-12-29T06:41:32.042Z,10.60
2022-12-29T06:44:04.212Z,11.40
2022-12-29T06:46:35.847Z,8.60
2022-12-29T06:49:07.482Z,8.60
2022-12-29T06:51:39.059Z,8.60
2022-12-29T06:54:11.493Z,9.80
2022-12-29T06:56:43.087Z,9.50
2022-12-29T06:59:14.972Z,10.20
2022-12-29T07:01:46.749Z,13.10
2022-12-29T07:04:18.603Z,12.30
2022-12-29T07:06:50.216Z,12.90
2022-12-29T07:09:22.018Z,10.70
2022-12-29T07:11:53.598Z,10.60
2022-12-29T07:14:25.557Z,12.80
2022-12-29T07:16:57.241Z,13.00
2022-12-29T07:19:28.966Z,14.80
2022-12-29T07:22:00.848Z,11.90
2022-12-29T07:24:32.501Z,10.40
2022-12-29T07:27:04.301Z,10.70
2022-12-29T07:29:36.124Z,11.10
2022-12-29T07:32:08.337Z,12.80
2022-12-29T07:34:40.822Z,11.70
2022-12-29T07:37:12.656Z,10.90
2022-12-29T07:39:44.603Z,12.20
2022-12-29T07:42:16.303Z,11.20
2022-12-29T07:44:49.156Z,12.40
2022-12-29T07:47:20.814Z,12.20
2022-12-29T07:49:52.475Z,12.50
2022-12-29T07:52:24.128Z,12.80
2022-12-29T07:54:55.868Z,13.60
2022-12-29T07:57:31.732Z,14.00
2022-12-29T08:00:04.896Z,12.70
2022-12-29T08:02:36.575Z,13.80
2022-12-29T08:05:09.973Z,13.50
2022-12-29T08:07:41.631Z,14.00
2022-12-29T08:10:14.101Z,14.50
2022-12-29T08:12:46.122Z,13.50
2022-12-29T08:15:17.914Z,13.30
2022-12-29T08:17:49.873Z,13.70
2022-12-29T08:20:21.750Z,12.30
2022-12-29T08:22:54.054Z,13.10
2022-12-29T08:25:25.667Z,12.70
2022-12-29T08:27:57.717Z,11.50
2022-12-29T08:30:29.345Z,11.40
2022-12-29T08:33:01.007Z,11.00
2022-12-29T08:35:32.616Z,11.40
2022-12-29T08:38:04.237Z,11.50
2022-12-29T08:40:35.892Z,13.00
2022-12-29T08:43:08.730Z,15.90
2022-12-29T08:45:40.490Z,14.30
2022-12-29T08:48:12.158Z,12.20
2022-12-29T08:50:46.536Z,12.20
2022-12-29T08:53:19.344Z,12.50
2022-12-29T08:56:00.827Z,18.90
2022-12-29T08:58:36.152Z,14.00
2022-12-29T09:01:08.336Z,14.10
2022-12-29T09:04:14.122Z,13.50
2022-12-29T09:06:35.092Z,13.70
2022-12-29T09:09:09.941Z,16.70
2022-12-29T09:11:41.791Z,13.10
2022-12-29T09:14:13.843Z,14.00
2022-12-29T09:17:03.391Z,14.40
2022-12-29T09:19:35.411Z,14.60
2022-12-29T09:22:07.019Z,15.80
2022-12-29T09:24:38.880Z,19.00
2022-12-29T09:27:10.759Z,16.40
2022-12-29T09:29:42.614Z,13.90
2022-12-29T09:32:18.550Z,13.70
2022-12-29T09:34:50.968Z,15.80
2022-12-29T09:37:22.682Z,17.10
2022-12-29T09:39:54.849Z,16.70
2022-12-29T09:42:34.419Z,15.80
2022-12-29T09:45:16.600Z,15.40
2022-12-29T09:47:49.080Z,16.90
2022-12-29T09:50:29.581Z,16.90
2022-12-29T09:53:06.789Z,17.60
2022-12-29T09:55:42.994Z,19.00
2022-12-29T09:58:22.163Z,17.30
2022-12-29T10:00:58.784Z,20.40
2022-12-29T10:03:42.452Z,15.20
2022-12-29T10:06:20.272Z,15.70
2022-12-29T10:09:00.564Z,18.70
2022-12-29T10:11:48.979Z,14.60
2022-12-29T10:14:36.775Z,17.10
2022-12-29T10:17:25.320Z,14.20
2022-12-29T10:20:18.169Z,19.10
2022-12-29T10:23:07.259Z,15.20
2022-12-29T10:25:42.593Z,14.00
2022-12-29T10:28:21.551Z,18.40
2022-12-29T10:30:55.975Z,27.00
2022-12-29T10:33:37.159Z,18.90
2022-12-29T10:36:18.092Z,17.40
2022-12-29T10:39:01.089Z,16.70
2022-12-29T10:41:40.631Z,17.90
2022-12-29T10:44:17.271Z,15.40
2022-12-29T10:46:54.873Z,15.00
2022-12-29T10:49:30.386Z,16.10
2022-12-29T10:52:05.415Z,15.10
2022-12-29T10:54:47.309Z,17.10
2022-12-29T10:57:27.713Z,15.10
2022-12-29T10:59:59.952Z,17.40
2022-12-29T11:02:51.487Z,16.50
2022-12-29T11:05:28.963Z,16.10
2022-12-29T11:08:04.699Z,16.90
2022-12-29T11:10:41.985Z,14.90
2022-12-29T11:13:20.329Z,17.40
2022-12-29T11:15:52.978Z,16.20
2022-12-29T11:18:27.136Z,17.80
2022-12-29T11:21:01.465Z,18.60
2022-12-29T11:23:35.776Z,18.70
2022-12-29T11:26:17.222Z,17.30
2022-12-29T11:29:06.061Z,17.00
2022-12-29T11:31:44.211Z,17.40
2022-12-29T11:34:24.319Z,18.50
2022-12-29T11:37:03.993Z,16.40
2022-12-29T11:39:41.256Z,19.00
2022-12-29T11:42:18.982Z,15.70
2022-12-29T11:44:53.414Z,16.80
2022-12-29T11:47:31.236Z,15.00
2022-12-29T11:50:09.237Z,14.20
2022-12-29T11:52:41.534Z,15.20
2022-12-29T11:55:23.990Z,14.50
2022-12-29T11:57:57.694Z,13.30
2022-12-29T12:00:32.998Z,16.50
2022-12-29T12:03:10.018Z,15.40
2022-12-29T12:05:46.815Z,18.60
2022-12-29T12:08:23.073Z,16.80
2022-12-29T12:11:03.986Z,16.50
2022-12-29T12:13:41.276Z,17.00
2022-12-29T12:16:17.354Z,18.00
2022-12-29T12:18:54.760Z,18.50
2022-12-29T12:21:33.156Z,21.00
2022-12-29T12:24:21.469Z,19.00
2022-12-29T12:27:02.008Z,16.20
2022-12-29T12:29:40.636Z,15.50
2022-12-29T12:32:21.275Z,15.60
2022-12-29T12:34:53.340Z,15.90
2022-12-29T12:37:50.419Z,12.20
2022-12-29T12:40:37.125Z,13.70
2022-12-29T12:43:26.404Z,13.10
2022-12-29T12:46:12.042Z,16.10
2022-12-29T12:48:58.296Z,13.30
2022-12-29T12:51:39.045Z,12.50
2022-12-29T12:54:24.626Z,14.20
2022-12-29T12:57:13.580Z,25.20
2022-12-29T12:59:57.840Z,13.40
2022-12-29T13:02:42.300Z,13.50
2022-12-29T13:05:42.077Z,14.20
2022-12-29T13:08:50.032Z,16.30
2022-12-29T13:11:31.647Z,15.50
2022-12-29T13:14:20.719Z,18.10
2022-12-29T13:16:58.080Z,17.70
2022-12-29T13:19:36.825Z,21.80
2022-12-29T13:22:15.659Z,19.30
2022-12-29T13:24:59.047Z,17.70
2022-12-29T13:27:43.202Z,15.70
2022-12-29T13:32:57.848Z,16.10
2022-12-29T13:35:44.011Z,20.30
2022-12-29T13:38:20.921Z,16.20
2022-12-29T13:40:57.108Z,18.00
2022-12-29T13:43:30.732Z,18.60
2022-12-29T13:46:07.640Z,17.50
2022-12-29T13:48:46.147Z,17.10
2022-12-29T13:51:27.257Z,15.80
2022-12-29T13:54:10.211Z,20.10
2022-12-29T13:56:46.510Z,15.80
2022-12-29T13:59:25.525Z,17.30
2022-12-29T14:02:02.944Z,17.90
2022-12-29T14:04:36.097Z,16.60
2022-12-29T14:07:15.782Z,17.70
2022-12-29T14:09:50.655Z,16.40
2022-12-29T14:12:43.134Z,16.20
2022-12-29T14:15:28.078Z,15.60
2022-12-29T14:18:16.542Z,16.30
2022-12-29T14:20:56.196Z,13.80
2022-12-29T14:23:39.194Z,15.60
2022-12-29T14:26:20.959Z,15.30
2022-12-29T14:28:52.972Z,16.80
2022-12-29T14:31:42.292Z,16.90
2022-12-29T14:34:31.320Z,13.30
2022-12-29T14:37:04.618Z,17.90
2022-12-29T14:39:39.341Z,15.20
2022-12-29T14:42:18.483Z,13.80
2022-12-29T14:44:52.954Z,13.10
2022-12-29T14:47:29.380Z,14.00
2022-12-29T14:50:08.820Z,13.90
2022-12-29T14:52:49.715Z,13.10
2022-12-29T14:55:41.278Z,11.70
2022-12-29T14:58:20.641Z,16.90
2022-12-29T15:00:52.911Z,15.00
2022-12-29T15:03:27.330Z,13.20
2022-12-29T15:06:04.752Z,14.60
2022-12-29T15:08:42.481Z,15.20
2022-12-29T15:11:19.443Z,15.60
2022-12-29T15:13:52.033Z,14.50
2022-12-29T15:16:31.186Z,17.20
2022-12-29T15:19:03.929Z,16.60
2022-12-29T15:21:38.328Z,17.20
2022-12-29T15:24:14.593Z,15.70
2022-12-29T15:26:50.539Z,15.70
2022-12-29T15:29:39.234Z,15.00
2022-12-29T15:32:23.284Z,21.50
2022-12-29T15:37:28.714Z,19.40
2022-12-29T15:40:00.441Z,17.60
2022-12-29T15:42:49.813Z,16.60
2022-12-29T15:45:22.300Z,19.60
2022-12-29T15:47:58.246Z,19.00
2022-12-29T15:50:32.243Z,17.50
2022-12-29T15:53:11.397Z,17.50
2022-12-29T15:55:44.576Z,45.40
2022-12-29T15:58:24.568Z,21.90
2022-12-29T16:00:58.760Z,18.00
2022-12-29T16:03:35.237Z,15.70
2022-12-29T16:06:27.874Z,18.70
2022-12-29T16:09:05.136Z,18.10
2022-12-29T16:11:40.148Z,19.60
2022-12-29T16:14:18.344Z,17.70
2022-12-29T16:16:51.685Z,17.00
2022-12-29T16:19:29.869Z,17.30
2022-12-29T16:22:03.260Z,20.90
2022-12-29T16:24:39.431Z,18.10
2022-12-29T16:27:19.814Z,16.80
2022-12-29T16:29:55.347Z,16.80
2022-12-29T16:32:32.683Z,18.80
2022-12-29T16:35:19.545Z,19.20
2022-12-29T16:38:08.545Z,18.10
2022-12-29T16:40:53.663Z,20.80
2022-12-29T16:43:27.939Z,17.40
2022-12-29T16:46:28.657Z,19.80
2022-12-29T16:49:01.396Z,18.50
2022-12-29T16:51:37.297Z,19.50
2022-12-29T16:54:19.853Z,20.40
2022-12-29T16:56:52.437Z,23.30
2022-12-29T16:59:34.087Z,22.70
2022-12-29T17:02:13.258Z,21.80
2022-12-29T17:04:49.470Z,32.60
2022-12-29T17:07:23.518Z,23.00
2022-12-29T17:09:55.783Z,22.60
2022-12-29T17:12:30.822Z,23.20
2022-12-29T17:15:06.637Z,20.50
2022-12-29T17:17:40.848Z,21.90
2022-12-29T17:20:19.304Z,25.30
2022-12-29T17:22:52.868Z,25.00
2022-12-29T17:25:29.221Z,28.60
2022-12-29T17:28:04.361Z,26.60
2022-12-29T17:30:37.210Z,23.30
2022-12-29T17:33:14.477Z,23.60
2022-12-29T17:35:50.443Z,23.70
2022-12-29T17:38:29.058Z,21.10
2022-12-29T17:41:01.655Z,22.40
2022-12-29T17:43:37.021Z,23.90
2022-12-29T17:46:10.265Z,23.30
2022-12-29T17:48:41.903Z,25.40
2022-12-29T17:51:14.708Z,23.70
2022-12-29T17:53:47.037Z,24.90
2022-12-29T17:56:18.727Z,25.80
2022-12-29T17:58:51.646Z,25.90
2022-12-29T18:01:31.021Z,27.50
2022-12-29T18:04:05.934Z,25.20
2022-12-29T18:06:37.491Z,26.50
2022-12-29T18:09:10.679Z,26.60
2022-12-29T18:11:44.336Z,28.40
2022-12-29T18:16:46.524Z,29.30
2022-12-29T18:19:18.125Z,27.00
2022-12-29T18:21:49.719Z,27.20
2022-12-29T18:24:21.461Z,27.90
2022-12-29T18:26:53.062Z,28.40
2022-12-29T18:29:24.615Z,27.70
2022-12-29T18:31:56.270Z,28.10
2022-12-29T18:34:27.951Z,34.80
2022-12-29T18:37:00.101Z,34.70
2022-12-29T18:39:31.800Z,35.40
2022-12-29T18:42:03.469Z,38.00
2022-12-29T18:44:35.171Z,35.00
2022-12-29T18:47:07.480Z,35.60
2022-12-29T18:49:39.186Z,32.20
2022-12-29T18:52:14.875Z,34.10
2022-12-29T18:54:46.508Z,30.60
2022-12-29T18:57:18.128Z,31.40
2022-12-29T18:59:49.759Z,33.30
2022-12-29T19:02:21.512Z,29.00
2022-12-29T19:04:55.502Z,31.30
2022-12-29T19:07:31.434Z,29.50
2022-12-29T19:10:03.307Z,30.50
2022-12-29T19:12:35.007Z,31.60
2022-12-29T19:15:14.728Z,36.00
2022-12-29T19:17:46.358Z,52.50
2022-12-29T19:20:29.060Z,46.10
2022-12-29T19:23:02.287Z,44.10
2022-12-29T19:25:34.314Z,40.30
2022-12-29T19:28:06.892Z,36.30
2022-12-29T19:30:39.963Z,36.70
2022-12-29T19:33:12.305Z,33.90
2022-12-29T19:35:44.758Z,32.70
2022-12-29T19:38:17.185Z,36.00
2022-12-29T19:40:51.560Z,40.50
2022-12-29T19:43:23.167Z,37.70
2022-12-29T19:45:54.891Z,36.70
2022-12-29T19:48:26.581Z,35.10
2022-12-29T19:51:06.429Z,36.60
2022-12-29T19:53:39.057Z,40.10
2022-12-29T19:56:12.175Z,47.10
2022-12-29T19:58:47.455Z,40.30
2022-12-29T20:01:21.620Z,41.30
2022-12-29T20:03:54.398Z,37.80
2022-12-29T20:06:26.534Z,35.50
2022-12-29T20:08:58.422Z,36.60
2022-12-29T20:11:30.260Z,35.80
2022-12-29T20:14:02.336Z,39.90
2022-12-29T20:16:44.508Z,33.20
2022-12-29T20:19:25.905Z,32.40
2022-12-29T20:21:57.846Z,32.60
2022-12-29T20:24:29.559Z,29.20
2022-12-29T20:27:02.873Z,29.20
2022-12-29T20:29:38.860Z,28.30
2022-12-29T20:32:13.452Z,25.40
2022-12-29T20:34:46.807Z,27.60
2022-12-29T20:37:20.282Z,27.80
2022-12-29T20:39:52.165Z,29.60
2022-12-29T20:42:24.074Z,31.30
2022-12-29T20:44:55.787Z,30.20
2022-12-29T20:47:27.483Z,27.20
2022-12-29T20:49:59.380Z,26.60
2022-12-29T20:52:31.327Z,28.70
2022-12-29T20:55:02.970Z,27.00
2022-12-29T20:57:57.114Z,24.30
2022-12-29T21:00:26.855Z,23.90
2022-12-29T21:02:58.834Z,20.60
2022-12-29T21:05:31.416Z,22.30
2022-12-29T21:08:03.103Z,23.90
2022-12-29T21:10:35.059Z,22.70
2022-12-29T21:13:06.792Z,22.40
2022-12-29T21:15:38.584Z,25.30
2022-12-29T21:18:10.180Z,27.60
2022-12-29T21:20:42.118Z,24.40
2022-12-29T21:23:13.997Z,23.10
2022-12-29T21:25:47.019Z,27.30
2022-12-29T21:28:18.758Z,25.20
2022-12-29T21:30:51.700Z,27.80
2022-12-29T21:33:24.182Z,25.90
2022-12-29T21:35:55.881Z,23.80
2022-12-29T21:38:29.301Z,25.30
2022-12-29T21:41:07.513Z,22.30
2022-12-29T21:43:39.750Z,18.90
2022-12-29T21:46:11.738Z,20.50
2022-12-29T21:48:43.394Z,22.30
2022-12-29T21:51:34.281Z,20.40
2022-12-29T21:54:20.513Z,19.70
2022-12-29T21:56:53.739Z,20.70
2022-12-29T21:59:43.319Z,21.40
2022-12-29T22:02:40.395Z,22.20
2022-12-29T22:05:31.498Z,22.70
2022-12-29T22:08:22.457Z,22.40
2022-12-29T22:11:12.314Z,24.20
2022-12-29T22:13:44.102Z,22.20
2022-12-29T22:16:16.226Z,24.00
2022-12-29T22:18:47.975Z,24.10
2022-12-29T22:21:19.839Z,23.10
2022-12-29T22:23:51.478Z,23.10
2022-12-29T22:26:23.117Z,26.00
2022-12-29T22:28:54.860Z,26.50
2022-12-29T22:31:29.055Z,25.60
2022-12-29T22:34:02.968Z,23.40
2022-12-29T22:36:35.017Z,27.50
2022-12-29T22:39:06.719Z,24.60
2022-12-29T22:41:38.386Z,27.40
2022-12-29T22:44:10.471Z,26.70
2022-12-29T22:46:42.115Z,25.30
2022-12-29T22:49:13.910Z,22.60
2022-12-29T22:51:45.552Z,24.40
2022-12-29T22:54:18.210Z,21.50
2022-12-29T22:56:50.116Z,22.60
2022-12-29T22:59:21.760Z,21.70
2022-12-29T23:01:53.604Z,21.00
2022-12-29T23:05:01.541Z,22.00
2022-12-29T23:07:17.226Z,21.40
2022-12-29T23:09:49.012Z,21.90
2022-12-29T23:12:20.756Z,20.20
2022-12-29T23:14:52.445Z,17.90
2022-12-29T23:17:25.121Z,18.90
2022-12-29T23:19:56.698Z,20.40
2022-12-29T23:22:28.350Z,17.80
2022-12-29T23:25:00.173Z,19.40
2022-12-29T23:27:32.981Z,20.30
2022-12-29T23:30:04.964Z,20.80
2022-12-29T23:32:36.617Z,20.20
2022-12-29T23:35:09.993Z,20.60
2022-12-29T23:37:41.576Z,21.30
2022-12-29T23:40:14.850Z,22.60
2022-12-29T23:42:46.667Z,18.40
2022-12-29T23:45:18.685Z,19.50
2022-12-29T23:47:50.288Z,20.60
2022-12-29T23:50:21.940Z,22.40
2022-12-29T23:52:53.573Z,21.00
2022-12-29T23:55:25.646Z,20.70
2022-12-29T23:57:57.231Z,21.90
